createdAt,value
2022-11-18T00:01:41.316Z,15.80
2022-11-18T00:04:43.273Z,15.80
2022-11-18T00:07:45.521Z,15.80
2022-11-18T00:10:47.643Z,15.80
2022-11-18T00:14:08.222Z,15.80
2022-11-18T00:17:10.298Z,15.80
2022-11-18T00:20:12.305Z,15.80
2022-11-18T00:23:14.408Z,15.80
2022-11-18T00:26:21.408Z,15.90
2022-11-18T00:29:28.891Z,15.90
2022-11-18T00:32:31.401Z,16.00
2022-11-18T00:35:35.491Z,15.90
2022-11-18T00:38:37.790Z,15.90
2022-11-18T00:41:58.901Z,15.90
2022-11-18T00:45:00.942Z,15.90
2022-11-18T00:48:03.393Z,15.90
2022-11-18T00:51:16.143Z,15.80
2022-11-18T00:54:20.830Z,15.80
2022-11-18T00:57:25.588Z,15.80
2022-11-18T01:00:28.830Z,15.80
2022-11-18T01:03:31.333Z,15.80
2022-11-18T01:06:36.219Z,15.80
2022-11-18T01:09:38.212Z,15.80
2022-11-18T01:12:58.962Z,15.80
2022-11-18T01:16:01.009Z,15.70
2022-11-18T01:19:03.283Z,15.70
2022-11-18T01:22:05.664Z,15.70
2022-11-18T01:25:08.672Z,15.50
2022-11-18T01:28:11.362Z,15.50
2022-11-18T01:31:16.356Z,15.50
2022-11-18T01:34:18.799Z,15.50
2022-11-18T01:37:21.019Z,15.50
2022-11-18T01:40:23.017Z,15.50
2022-11-18T01:43:47.172Z,15.50
2022-11-18T01:46:49.601Z,15.50
2022-11-18T01:49:51.805Z,15.40
2022-11-18T01:53:01.016Z,15.40
2022-11-18T01:56:12.424Z,15.40
2022-11-18T01:59:19.669Z,15.40
2022-11-18T02:02:22.764Z,15.40
2022-11-18T02:05:26.211Z,15.50
2022-11-18T02:08:29.779Z,15.50
2022-11-18T02:11:51.243Z,15.60
2022-11-18T02:14:53.477Z,15.60
2022-11-18T02:18:13.219Z,15.60
2022-11-18T02:21:15.496Z,15.60
2022-11-18T02:24:42.653Z,15.60
2022-11-18T02:27:58.514Z,15.60
2022-11-18T02:31:27.631Z,15.60
2022-11-18T02:34:32.610Z,15.60
2022-11-18T02:37:59.819Z,15.60
2022-11-18T02:41:17.693Z,15.60
2022-11-18T02:44:21.878Z,15.70
2022-11-18T02:47:26.782Z,15.70
2022-11-18T02:50:30.676Z,15.70
2022-11-18T02:53:33.990Z,15.70
2022-11-18T02:56:36.794Z,15.70
2022-11-18T02:59:39.090Z,15.80
2022-11-18T03:02:50.817Z,15.70
2022-11-18T03:06:06.791Z,15.70
2022-11-18T03:09:08.755Z,15.70
2022-11-18T03:12:41.513Z,15.70
2022-11-18T03:15:46.367Z,15.70
2022-11-18T03:19:06.401Z,15.80
2022-11-18T03:22:15.649Z,15.70
2022-11-18T03:25:34.486Z,15.80
2022-11-18T03:28:50.583Z,15.70
2022-11-18T03:32:02.597Z,15.80
2022-11-18T03:35:10.252Z,15.70
2022-11-18T03:38:29.066Z,15.70
2022-11-18T03:41:37.174Z,15.60
2022-11-18T03:44:47.103Z,15.50
2022-11-18T03:48:00.041Z,15.50
2022-11-18T03:51:07.030Z,15.60
2022-11-18T03:54:41.726Z,15.50
2022-11-18T03:58:02.251Z,15.50
2022-11-18T04:01:30.639Z,15.50
2022-11-18T04:04:34.000Z,15.50
2022-11-18T04:07:38.856Z,15.50
2022-11-18T04:10:40.835Z,15.50
2022-11-18T04:13:45.033Z,15.40
2022-11-18T04:16:51.834Z,15.40
2022-11-18T04:19:54.386Z,15.40
2022-11-18T04:22:56.407Z,15.30
2022-11-18T04:25:58.393Z,15.30
2022-11-18T04:29:00.804Z,15.30
2022-11-18T04:32:03.886Z,15.20
2022-11-18T04:35:06.623Z,15.20
2022-11-18T04:38:08.783Z,15.10
2022-11-18T04:41:10.824Z,15.10
2022-11-18T04:44:15.519Z,15.10
2022-11-18T04:47:17.411Z,15.10
2022-11-18T04:50:19.619Z,15.10
2022-11-18T04:53:21.655Z,15.00
2022-11-18T04:56:23.725Z,15.00
2022-11-18T04:59:28.738Z,15.00
2022-11-18T05:02:30.768Z,14.90
2022-11-18T05:05:35.210Z,14.90
2022-11-18T05:08:37.231Z,14.80
2022-11-18T05:11:59.418Z,14.80
2022-11-18T05:15:01.870Z,14.80
2022-11-18T05:18:04.004Z,14.80
2022-11-18T05:21:06.642Z,14.70
2022-11-18T05:24:08.782Z,14.70
2022-11-18T05:27:11.907Z,14.60
2022-11-18T05:30:14.365Z,14.60
2022-11-18T05:33:17.331Z,14.60
2022-11-18T05:36:21.311Z,14.50
2022-11-18T05:39:23.365Z,14.50
2022-11-18T05:42:43.693Z,14.50
2022-11-18T05:45:45.785Z,14.50
2022-11-18T05:48:47.793Z,14.50
2022-11-18T05:51:52.178Z,14.50
2022-11-18T05:54:54.457Z,14.50
2022-11-18T05:57:56.457Z,14.50
2022-11-18T06:01:04.914Z,14.50
2022-11-18T06:04:13.790Z,14.50
2022-11-18T06:07:29.180Z,14.60
2022-11-18T06:10:36.657Z,14.60
2022-11-18T06:13:50.669Z,14.60
2022-11-18T06:16:57.593Z,14.50
2022-11-18T06:20:02.542Z,14.50
2022-11-18T06:23:04.820Z,14.40
2022-11-18T06:26:11.505Z,14.40
2022-11-18T06:29:16.637Z,14.40
2022-11-18T06:32:19.022Z,14.40
2022-11-18T06:35:21.122Z,14.40
2022-11-18T06:38:26.242Z,14.40
2022-11-18T06:41:28.271Z,14.40
2022-11-18T06:44:30.423Z,14.40
2022-11-18T06:47:32.532Z,14.40
2022-11-18T06:50:34.782Z,14.40
2022-11-18T06:53:37.066Z,14.40
2022-11-18T06:56:40.126Z,14.40
2022-11-18T06:59:42.181Z,14.30
2022-11-18T07:02:44.210Z,14.30
2022-11-18T07:05:46.350Z,14.30
2022-11-18T07:08:49.403Z,14.20
2022-11-18T07:11:51.412Z,14.20
2022-11-18T07:14:53.568Z,14.30
2022-11-18T07:17:55.799Z,14.30
2022-11-18T07:20:58.023Z,14.40
2022-11-18T07:24:01.023Z,14.40
2022-11-18T07:27:03.133Z,14.50
2022-11-18T07:30:05.554Z,14.50
2022-11-18T07:33:07.620Z,14.50
2022-11-18T07:36:10.037Z,14.50
2022-11-18T07:39:12.202Z,14.50
2022-11-18T07:42:14.172Z,14.50
2022-11-18T07:45:16.242Z,14.80
2022-11-18T07:48:19.755Z,15.20
2022-11-18T07:51:27.770Z,15.80
2022-11-18T07:54:31.254Z,16.40
2022-11-18T07:57:33.782Z,17.30
2022-11-18T08:00:35.821Z,18.20
2022-11-18T08:03:38.357Z,19.10
2022-11-18T08:06:41.559Z,20.10
2022-11-18T08:09:43.734Z,21.00
2022-11-18T08:12:45.992Z,22.00
2022-11-18T08:15:48.047Z,22.90
2022-11-18T08:18:51.101Z,23.60
2022-11-18T08:21:53.167Z,23.50
2022-11-18T08:24:55.169Z,23.80
2022-11-18T08:27:58.273Z,24.50
2022-11-18T08:31:00.603Z,25.30
2022-11-18T08:34:07.806Z,25.40
2022-11-18T08:37:10.138Z,25.80
2022-11-18T08:40:13.512Z,26.20
2022-11-18T08:43:15.661Z,26.70
2022-11-18T08:46:17.795Z,27.50
2022-11-18T08:49:20.513Z,28.00
2022-11-18T08:52:22.813Z,28.00
2022-11-18T08:55:24.832Z,28.10
2022-11-18T08:58:27.937Z,28.60
2022-11-18T09:01:30.563Z,29.50
2022-11-18T09:04:33.075Z,29.60
2022-11-18T09:07:35.274Z,29.80
2022-11-18T09:10:38.462Z,30.50
2022-11-18T09:14:04.331Z,30.80
2022-11-18T09:17:02.758Z,30.70
2022-11-18T09:20:05.576Z,30.60
2022-11-18T09:23:08.167Z,31.30
2022-11-18T09:26:13.033Z,31.40
2022-11-18T09:29:15.177Z,32.10
2022-11-18T09:32:17.257Z,32.00
2022-11-18T09:35:20.229Z,31.60
2022-11-18T09:38:22.235Z,31.80
2022-11-18T09:41:24.364Z,32.90
2022-11-18T09:44:42.624Z,32.40
2022-11-18T09:47:44.906Z,32.20
2022-11-18T09:50:50.153Z,31.80
2022-11-18T09:53:53.813Z,32.10
2022-11-18T09:56:56.554Z,32.70
2022-11-18T10:00:01.030Z,33.40
2022-11-18T10:03:16.262Z,33.10
2022-11-18T10:06:29.708Z,33.20
2022-11-18T10:09:38.501Z,32.60
2022-11-18T10:12:50.913Z,32.90
2022-11-18T10:16:19.061Z,33.00
2022-11-18T10:19:37.032Z,33.00
2022-11-18T10:23:01.730Z,33.90
2022-11-18T10:26:03.790Z,33.70
2022-11-18T10:29:10.915Z,34.10
2022-11-18T10:32:15.361Z,33.40
2022-11-18T10:35:26.628Z,32.70
2022-11-18T10:38:28.730Z,32.90
2022-11-18T10:41:50.387Z,33.10
2022-11-18T10:44:53.520Z,33.00
2022-11-18T10:48:00.412Z,32.10
2022-11-18T10:51:24.840Z,31.00
2022-11-18T10:54:26.921Z,29.50
2022-11-18T10:57:34.989Z,27.60
2022-11-18T11:00:46.439Z,25.90
2022-11-18T11:04:05.208Z,26.80
2022-11-18T11:07:33.418Z,28.10
2022-11-18T11:10:35.835Z,29.20
2022-11-18T11:13:43.372Z,29.80
2022-11-18T11:17:09.286Z,29.00
2022-11-18T11:20:23.878Z,27.20
2022-11-18T11:23:26.603Z,25.40
2022-11-18T11:30:25.483Z,25.50
2022-11-18T11:33:36.510Z,26.40
2022-11-18T11:36:54.946Z,27.60
2022-11-18T11:40:25.968Z,27.50
2022-11-18T11:44:07.828Z,26.10
2022-11-18T11:47:37.259Z,25.20
2022-11-18T11:51:01.584Z,24.00
2022-11-18T11:54:35.160Z,22.60
2022-11-18T11:57:49.004Z,21.80
2022-11-18T12:01:20.968Z,21.20
2022-11-18T12:04:41.705Z,20.90
2022-11-18T12:07:57.841Z,20.40
2022-11-18T12:11:14.350Z,20.30
2022-11-18T12:14:39.566Z,20.10
2022-11-18T12:17:53.562Z,20.00
2022-11-18T12:20:55.676Z,19.50
2022-11-18T12:24:17.662Z,19.20
2022-11-18T12:27:30.482Z,19.10
2022-11-18T12:30:32.584Z,19.20
2022-11-18T12:33:44.991Z,19.40
2022-11-18T12:36:47.889Z,19.40
2022-11-18T12:39:59.036Z,19.30
2022-11-18T12:43:20.555Z,19.30
2022-11-18T12:46:34.763Z,19.30
2022-11-18T12:49:37.046Z,19.20
2022-11-18T12:52:42.124Z,19.30
2022-11-18T12:55:44.185Z,19.30
2022-11-18T12:58:47.972Z,19.50
2022-11-18T13:02:01.160Z,19.50
2022-11-18T13:05:20.654Z,19.40
2022-11-18T13:08:24.592Z,19.50
2022-11-18T13:11:46.555Z,19.40
2022-11-18T13:15:07.844Z,19.20
2022-11-18T13:18:21.024Z,19.10
2022-11-18T13:21:54.024Z,19.10
2022-11-18T13:24:56.151Z,19.10
2022-11-18T13:28:18.127Z,19.20
2022-11-18T13:31:30.969Z,19.20
2022-11-18T13:34:50.904Z,19.20
2022-11-18T13:37:58.241Z,19.00
2022-11-18T13:41:08.341Z,19.00
2022-11-18T13:44:25.679Z,19.00
2022-11-18T13:47:36.860Z,19.20
2022-11-18T13:50:51.543Z,19.10
2022-11-18T13:53:53.733Z,19.20
2022-11-18T13:56:57.761Z,19.10
2022-11-18T14:00:05.706Z,19.00
2022-11-18T14:03:29.121Z,19.00
2022-11-18T14:06:31.160Z,18.90
2022-11-18T14:09:33.207Z,19.00
2022-11-18T14:12:36.534Z,18.90
2022-11-18T14:15:43.497Z,18.90
2022-11-18T14:18:48.697Z,19.00
2022-11-18T14:21:50.838Z,18.80
2022-11-18T14:24:58.557Z,18.40
2022-11-18T14:28:15.675Z,18.30
2022-11-18T14:31:28.175Z,18.00
2022-11-18T14:34:31.298Z,18.00
2022-11-18T14:37:33.589Z,18.00
2022-11-18T14:40:35.618Z,18.00
2022-11-18T14:43:37.816Z,17.90
2022-11-18T14:46:41.722Z,17.90
2022-11-18T14:49:43.807Z,17.80
2022-11-18T14:52:45.832Z,17.80
2022-11-18T14:55:53.266Z,17.80
2022-11-18T14:58:55.713Z,17.70
2022-11-18T15:02:00.625Z,17.70
2022-11-18T15:05:02.755Z,17.70
2022-11-18T15:08:05.605Z,17.50
2022-11-18T15:11:07.805Z,17.40
2022-11-18T15:14:09.910Z,17.30
2022-11-18T15:17:13.740Z,17.30
2022-11-18T15:20:22.966Z,17.30
2022-11-18T15:23:29.649Z,17.30
2022-11-18T15:26:38.417Z,17.10
2022-11-18T15:29:40.690Z,17.10
2022-11-18T15:32:43.322Z,17.10
2022-11-18T15:35:45.362Z,17.00
2022-11-18T15:38:48.299Z,17.00
2022-11-18T15:41:53.912Z,16.90
2022-11-18T15:44:55.966Z,17.00
2022-11-18T15:47:58.583Z,17.00
2022-11-18T15:51:00.675Z,17.00
2022-11-18T15:54:02.873Z,17.10
2022-11-18T15:57:05.258Z,17.10
2022-11-18T16:00:09.247Z,16.90
2022-11-18T16:03:12.194Z,17.00
2022-11-18T16:06:14.230Z,16.90
2022-11-18T16:09:18.829Z,16.90
2022-11-18T16:12:39.456Z,17.00
2022-11-18T16:15:44.084Z,17.00
2022-11-18T16:18:46.394Z,17.10
2022-11-18T16:21:51.495Z,17.10
2022-11-18T16:24:53.910Z,17.00
2022-11-18T16:27:59.551Z,17.00
2022-11-18T16:31:22.589Z,17.00
2022-11-18T16:34:27.591Z,16.90
2022-11-18T16:37:30.608Z,16.80
2022-11-18T16:40:32.955Z,16.70
2022-11-18T16:43:35.277Z,16.60
2022-11-18T16:46:40.667Z,16.50
2022-11-18T16:49:44.049Z,16.40
2022-11-18T16:52:48.176Z,16.30
2022-11-18T16:55:50.174Z,16.30
2022-11-18T16:59:00.248Z,16.20
2022-11-18T17:02:03.237Z,16.20
2022-11-18T17:05:06.068Z,16.10
2022-11-18T17:08:08.051Z,16.00
2022-11-18T17:11:11.554Z,15.90
2022-11-18T17:14:13.747Z,15.90
2022-11-18T17:17:15.717Z,15.90
2022-11-18T17:20:18.111Z,15.80
2022-11-18T17:23:21.621Z,15.80
2022-11-18T17:26:27.679Z,15.80
2022-11-18T17:29:33.064Z,15.70
2022-11-18T17:32:35.067Z,15.70
2022-11-18T17:35:37.614Z,15.70
2022-11-18T17:38:41.707Z,15.70
2022-11-18T17:42:02.086Z,15.60
2022-11-18T17:45:04.736Z,15.60
2022-11-18T17:48:06.851Z,15.60
2022-11-18T17:51:08.887Z,15.70
2022-11-18T17:54:13.224Z,15.70
2022-11-18T17:57:15.460Z,15.70
2022-11-18T18:00:18.275Z,15.70
2022-11-18T18:03:20.424Z,15.70
2022-11-18T18:06:23.003Z,15.60
2022-11-18T18:09:30.672Z,15.60
2022-11-18T18:12:53.633Z,15.50
2022-11-18T18:16:02.207Z,15.40
2022-11-18T18:19:06.459Z,15.50
2022-11-18T18:22:08.505Z,15.50
2022-11-18T18:25:12.128Z,15.50
2022-11-18T18:28:14.241Z,15.50
2022-11-18T18:31:17.902Z,15.40
2022-11-18T18:34:20.191Z,15.30
2022-11-18T18:37:22.701Z,15.20
2022-11-18T18:40:24.908Z,15.10
2022-11-18T18:43:26.901Z,15.10
2022-11-18T18:46:32.792Z,15.10
2022-11-18T18:49:34.832Z,15.10
2022-11-18T18:52:36.856Z,15.00
2022-11-18T18:55:44.657Z,15.00
2022-11-18T18:58:47.426Z,14.90
2022-11-18T19:01:49.569Z,14.90
2022-11-18T19:04:52.902Z,14.90
2022-11-18T19:07:54.928Z,14.90
2022-11-18T19:10:58.931Z,14.90
2022-11-18T19:14:12.057Z,14.80
2022-11-18T19:17:14.210Z,14.80
2022-11-18T19:20:34.759Z,14.80
2022-11-18T19:23:36.765Z,14.80
2022-11-18T19:26:39.216Z,14.80
2022-11-18T19:29:41.207Z,14.80
2022-11-18T19:32:43.382Z,14.80
2022-11-18T19:35:45.547Z,14.80
2022-11-18T19:38:50.220Z,14.70
2022-11-18T19:41:54.747Z,14.70
2022-11-18T19:44:57.084Z,14.70
2022-11-18T19:48:01.824Z,14.60
2022-11-18T19:51:12.187Z,14.60
2022-11-18T19:54:15.174Z,14.60
2022-11-18T19:57:17.236Z,14.60
2022-11-18T20:00:19.813Z,14.60
2022-11-18T20:03:21.796Z,14.50
2022-11-18T20:06:25.580Z,14.50
2022-11-18T20:09:27.626Z,14.50
2022-11-18T20:12:29.596Z,14.50
2022-11-18T20:15:31.680Z,14.50
2022-11-18T20:18:36.627Z,14.50
2022-11-18T20:21:39.581Z,14.40
2022-11-18T20:24:41.587Z,14.40
2022-11-18T20:27:43.579Z,14.40
2022-11-18T20:30:54.184Z,14.40
2022-11-18T20:33:56.856Z,14.40
2022-11-18T20:37:00.299Z,14.40
2022-11-18T20:40:02.566Z,14.30
2022-11-18T20:43:13.306Z,14.40
2022-11-18T20:46:20.930Z,14.30
2022-11-18T20:49:23.394Z,14.30
2022-11-18T20:52:25.428Z,14.30
2022-11-18T20:55:27.527Z,14.30
2022-11-18T20:58:31.062Z,14.30
2022-11-18T21:01:33.994Z,14.20
2022-11-18T21:04:36.201Z,14.30
2022-11-18T21:07:38.344Z,14.30
2022-11-18T21:10:41.755Z,14.30
2022-11-18T21:14:02.474Z,14.30
2022-11-18T21:17:04.834Z,14.30
2022-11-18T21:20:28.252Z,14.30
2022-11-18T21:23:30.287Z,14.30
2022-11-18T21:26:34.207Z,14.40
2022-11-18T21:29:36.513Z,14.40
2022-11-18T21:32:38.566Z,14.40
2022-11-18T21:35:41.472Z,14.40
2022-11-18T21:38:44.065Z,14.40
2022-11-18T21:41:49.382Z,14.40
2022-11-18T21:44:54.258Z,14.30
2022-11-18T21:47:56.271Z,14.30
2022-11-18T21:51:04.047Z,14.20
2022-11-18T21:54:09.827Z,14.30
2022-11-18T21:57:11.856Z,14.20
2022-11-18T22:00:16.443Z,14.20
2022-11-18T22:03:18.514Z,14.20
2022-11-18T22:06:21.310Z,14.20
2022-11-18T22:09:23.390Z,14.30
2022-11-18T22:12:25.400Z,14.30
2022-11-18T22:15:27.492Z,14.40
2022-11-18T22:18:34.471Z,14.50
2022-11-18T22:21:36.779Z,14.40
2022-11-18T22:24:38.928Z,14.40
2022-11-18T22:27:41.023Z,14.40
2022-11-18T22:30:46.193Z,14.40
2022-11-18T22:33:49.704Z,14.40
2022-11-18T22:36:51.719Z,14.40
2022-11-18T22:39:53.855Z,14.30
2022-11-18T22:42:55.886Z,14.30
2022-11-18T22:46:08.530Z,14.30
2022-11-18T22:49:11.825Z,14.30
2022-11-18T22:52:13.903Z,14.20
2022-11-18T22:55:16.052Z,14.20
2022-11-18T22:58:18.343Z,14.10
2022-11-18T23:01:22.167Z,14.10
2022-11-18T23:04:24.156Z,14.10
2022-11-18T23:07:26.317Z,14.00
2022-11-18T23:10:28.347Z,13.90
2022-11-18T23:13:48.883Z,13.90
2022-11-18T23:16:51.020Z,13.90
2022-11-18T23:19:53.056Z,13.80
2022-11-18T23:22:55.098Z,13.80
2022-11-18T23:26:07.916Z,13.80
2022-11-18T23:29:11.994Z,13.80
2022-11-18T23:32:13.996Z,13.80
2022-11-18T23:35:16.541Z,13.80
2022-11-18T23:38:18.883Z,13.80
2022-11-18T23:41:21.751Z,13.70
2022-11-18T23:44:43.727Z,13.70
2022-11-18T23:47:46.929Z,13.70
2022-11-18T23:50:59.387Z,13.70
2022-11-18T23:54:01.503Z,13.70
2022-11-18T23:57:05.379Z,13.60
